• Join FlightAware (Why Join?)
  • Login
  • US Flag 
09:34AM EST


 

Airport Tracker/Info


-or-


 

Live Flight TrackerFlight Track Log ✈ SWA1826 ✈ 22-Apr-2013 ✈ KPHX - KSJC

Flight Track Log - Related Links

Times and Time Zones

All times are in EDT time to prevent confusion due to time zone crossing. See the SWA1826 flight status page for this flight to view local times or setup timezone preferences in your user account.

Time Position Orientation Groundspeed Altitude Reporting Facility
EDT Latitude Longitude Course Direction KTS MPH feet Rate Location/Type
11:32AM 33.4333 -111.9833 90° East 164 189 1,800  Level Phoenix TRACON
11:33AM 33.4333 -111.9667 90° East 167 192 2,800 1,740 Climbing Phoenix TRACON
11:34AM 33.4361 -111.9036 87° East 200 230 4,500 2,220 Climbing Albuquerque Center
11:35AM 33.4019 -111.8614 134° Southeast 224 258 7,400 2,580 Climbing Albuquerque Center
11:36AM 33.3592 -111.9078 222° Southwest 239 275 9,900 2,100 Climbing Albuquerque Center
11:37AM 33.3711 -112.0058 278° West 300 345 11,800 2,460 Climbing Albuquerque Center
11:38AM 33.3822 -112.1206 277° West 342 394 15,000 3,240 Climbing Albuquerque Center
11:39AM 33.3972 -112.2631 277° West 357 411 18,600 3,000 Climbing Albuquerque Center
11:40AM 33.4103 -112.3878 277° West 375 432 21,200 2,460 Climbing Albuquerque Center
11:41AM 33.4228 -112.5167 277° West 387 445 23,800 2,220 Climbing Albuquerque Center
11:42AM 33.4353 -112.6464 277° West 398 458 25,800 1,800 Climbing Albuquerque Center
11:43AM 33.4483 -112.7817 277° West 406 467 27,600 1,860 Climbing Albuquerque Center
11:44AM 33.4769 -112.9472 282° West 421 484 29,700 1,980 Climbing Albuquerque Center
11:45AM 33.5039 -113.0878 283° West 431 496 31,700 1,980 Climbing Albuquerque Center
11:46AM 33.5294 -113.2219 283° West 423 487 33,900 1,920 Climbing Albuquerque Center
11:47AM 33.5542 -113.3536 283° West 412 474 35,700 1,500 Climbing Albuquerque Center
11:48AM 33.5781 -113.4819 283° West 402 463 37,000 1,080 Climbing Albuquerque Center
11:49AM 33.6028 -113.6136 283° West 405 466 38,000 480 Climbing Albuquerque Center
11:50AM 33.6297 -113.7517 283° West 403 464 38,000  Level Albuquerque Center
11:51AM 33.6558 -113.8825 284° West 402 463 38,000  Level Albuquerque Center
11:52AM 33.6881 -114.0372 284° West 401 461 38,000  Level Albuquerque Center
11:53AM 33.7128 -114.1681 283° West 402 463 38,000  Level Albuquerque Center
11:54AM 33.7372 -114.2858 284° West 397 457 38,000  Level Albuquerque Center
11:55AM 33.7661 -114.4278 284° West 398 458 38,000  Level Los Angeles Center
11:56AM 33.7914 -114.5575 283° West 399 459 38,000  Level Los Angeles Center
11:57AM 33.8222 -114.7128 283° West 400 460 38,000  Level Los Angeles Center
11:58AM 33.8481 -114.8431 283° West 402 463 38,000  Level Los Angeles Center
11:59AM 33.8731 -114.9758 283° West 406 467 38,000  Level Los Angeles Center
12:00PM 33.8992 -115.1086 283° West 408 470 38,000  Level Los Angeles Center
12:02PM 33.9247 -115.2417 283° West 409 471 38,000  Level Los Angeles Center
12:03PM 33.9553 -115.4017 283° West 410 472 38,000  Level Los Angeles Center
12:04PM 33.9803 -115.5369 283° West 414 476 38,000  Level Los Angeles Center
12:05PM 34.0056 -115.6706 283° West 412 474 38,000  Level Los Angeles Center
12:06PM 34.0306 -115.8056 283° West 414 476 38,000  Level Los Angeles Center
12:07PM 34.0561 -115.9378 283° West 409 471 38,000  Level Los Angeles Center
12:08PM 34.0794 -116.0714 282° West 408 470 38,000  Level Los Angeles Center
12:09PM 34.1100 -116.2300 283° West 407 468 38,000  Level Los Angeles Center
12:10PM 34.1314 -116.3542 282° West 405 466 38,000  Level Los Angeles Center
12:11PM 34.1556 -116.4872 282° West 407 468 38,000  Level Los Angeles Center
12:12PM 34.1792 -116.6194 282° West 403 464 38,000  Level Los Angeles Center
12:13PM 34.2111 -116.7817 283° West 412 474 38,000  Level Los Angeles Center
12:14PM 34.2556 -116.9094 293° West 414 476 38,000  Level Los Angeles Center
12:15PM 34.2975 -117.0392 291° West 414 476 38,000  Level Los Angeles Center
12:16PM 34.3397 -117.1678 292° West 412 474 38,000  Level Los Angeles Center
12:17PM 34.3900 -117.3175 292° West 413 475 38,000  Level Los Angeles Center
12:18PM 34.4261 -117.4269 292° West 414 476 38,000  Level Los Angeles Center
12:19PM 34.4756 -117.5850 291° West 417 480 38,000  Level Los Angeles Center
12:20PM 34.5181 -117.7150 292° West 416 479 38,000  Level Los Angeles Center
12:21PM 34.5617 -117.8467 292° West 417 480 38,000  Level Los Angeles Center
12:22PM 34.6025 -117.9772 291° West 414 476 38,000  Level Los Angeles Center
12:23PM 34.6497 -118.1075 294° West 419 482 38,000  Level Los Angeles Center
12:24PM 34.7089 -118.2292 301° West 417 480 38,000  Level Los Angeles Center
12:25PM 34.7669 -118.3517 300° West 418 481 38,000  Level Los Angeles Center
12:26PM 34.8281 -118.4808 300° West 411 473 38,000  Level Los Angeles Center
12:27PM 34.8856 -118.6022 300° West 414 476 38,000  Level Los Angeles Center
12:28PM 34.9503 -118.7431 299° West 414 476 38,000  Level Los Angeles Center
12:29PM 35.0072 -118.8647 300° West 416 479 38,000  Level Los Angeles Center
12:30PM 35.0644 -118.9878 300° West 418 481 38,000  Level Los Angeles Center
12:32PM 35.1217 -119.1094 300° West 414 476 38,000  Level Los Angeles Center
12:33PM 35.1925 -119.2569 300° West 418 481 38,000  Level Los Angeles Center
12:34PM 35.2492 -119.3817 299° West 419 482 38,000  Level Los Angeles Center
12:35PM 35.3044 -119.5056 299° West 419 482 38,000  Level Los Angeles Center
12:36PM 35.3611 -119.6292 299° West 418 481 38,000  Level Los Angeles Center
12:37PM 35.4150 -119.7517 298° West 415 478 38,000  Level Oakland Center
12:38PM 35.4708 -119.8728 300° West 414 476 38,000  Level Oakland Center
12:39PM 35.5378 -120.0192 299° West 414 476 38,000  Level Oakland Center
12:40PM 35.5928 -120.1431 299° West 417 480 38,000  Level Oakland Center
12:41PM 35.6486 -120.2653 299° West 417 480 38,000  Level Oakland Center
12:42PM 35.7036 -120.3889 299° West 419 482 38,000  Level Oakland Center
12:43PM 35.7767 -120.4986 309° West 421 484 38,000  Level Oakland Center
12:44PM 35.8556 -120.6033 313° West 419 482 38,000 -300 Level Oakland Center
12:45PM 35.9506 -120.7322 312° West 423 487 37,500 -1,560 Descending Oakland Center
12:46PM 36.0286 -120.8356 313° West 413 475 34,900 -2,880 Descending Oakland Center
12:47PM 36.1086 -120.9403 313° West 418 481 31,700 -3,000 Descending Oakland Center
12:48PM 36.1875 -121.0486 312° West 422 486 28,800 -2,640 Descending Oakland Center
12:49PM 36.2644 -121.1539 312° West 415 478 26,300 -2,460 Descending Oakland Center
12:50PM 36.3408 -121.2572 313° West 408 470 23,800 -2,460 Descending Oakland Center
12:51PM 36.4147 -121.3583 312° West 397 457 21,300 -3,000 Descending Oakland Center
12:52PM 36.5058 -121.4283 328° Northwest 405 466 17,700 -3,120 Descending Oakland Center
12:53PM 36.6161 -121.4542 349° North 402 463 15,000 -1,920 Descending Oakland Center
12:54PM 36.7367 -121.4833 349° North 364 419 13,800 -1,080 Descending Oakland Center
12:55PM 36.8192 -121.5056 348° North 307 353 12,900 -1,140 Descending Oakland Center
12:56PM 36.8861 -121.5311 343° North 288 331 11,500 -1,440 Descending Oakland Center
12:57PM 36.9550 -121.5786 331° Northwest 284 327 10,000 -1,620 Descending Oakland Center
12:58PM 37.0361 -121.6317 332° Northwest 277 319 8,200 -1,620 Descending Oakland Center
12:59PM 37.1047 -121.6728 334° Northwest 273 314 6,700 -1,500 Descending Oakland Center
01:00PM 37.1333 -121.6833 344° North 271 312 6,200 -1,620 Descending Northern Cal TRACON
01:00PM 37.1706 -121.7178 324° Northwest 269 310 5,100 -1,860 Descending Oakland Center
01:01PM 37.2253 -121.7761 320° Northwest 266 306 3,100 -1,560 Descending Oakland Center
01:02PM 37.2725 -121.8322 317° Northwest 245 282 2,000 -900 Descending Oakland Center
01:03PM 37.3086 -121.8717 319° Northwest 197 227 1,300 -720 Descending Oakland Center
01:04PM 37.3372 -121.9036 318° Northwest 163 188 600 -720 Descending Oakland Center
01:07PM 37.3500 -121.9167 North  Level FlightAware Approximate